METAR Data
IDs: Format: Raw Decoded Include TAF

Data at: 1853 UTC 14 Dec 2018

KJXI 141835Z AUTO 30010G16KT 10SM OVC010 08/07 A2984 RMK AO2 T00820067
KJXI 141815Z AUTO 33009KT 10SM TS OVC010 08/07 A2985 RMK AO2 LTG DSNT N AND NE T00830068
KJXI 141755Z AUTO 33009G14KT 10SM OVC010 08/07 A2986 RMK AO2 60003 T00830066 10091 20083
KJXI 141735Z AUTO 32010G20KT 10SM OVC010 09/07 A2985 RMK AO2 T00850068
KJXI 141715Z AUTO 32013G18KT 10SM OVC010 09/07 A2985 RMK AO2 T00860069
KJXI 141655Z AUTO 32013G17KT 10SM OVC010 09/07 A2985 RMK AO2 T00890072
KJXI 141635Z AUTO 32012G19KT 10SM OVC008 09/08 A2983 RMK AO2 T00900077
KJXI 141555Z AUTO 31010G14KT 10SM -RA OVC008 09/08 A2983 RMK AO2 P0003 T00850080
KJXI 141515Z AUTO 30006KT 10SM OVC006 09/08 A2983 RMK AO2 LTG DSNT NE AND E T00850077
KJXI 141455Z AUTO 30006KT 10SM OVC004 08/08 A2981 RMK AO2 LTG DSNT NE AND E T00830078
KJXI 141435Z AUTO 29004KT 10SM -RA OVC004 09/08 A2982 RMK AO2 LTG DSNT NE T00850080
KJXI 141415Z AUTO 30005KT 10SM OVC004 09/08 A2981 RMK AO2 LTG DSNT E T00850080
KJXI 141355Z AUTO 32015KT 10SM OVC004 09/08 A2979 RMK AO2 LTG DSNT E T00850081
KJXI 141335Z AUTO 30010G16KT 10SM OVC004 09/08 A2978 RMK AO2 LTG DSNT NE AND E T00850082
KJXI 141315Z AUTO 29004KT 10SM 09/09 A2977 RMK AO2 LTG DSNT E AND SE T00860085
KJXI 141255Z AUTO 30003KT 5SM BR 09/09 A2976 RMK AO2 LTG DSNT N THRU SE T00870086
KJXI 141235Z AUTO 30007KT 3SM BR 09/09 A2973 RMK AO2 LTG DSNT NE THRU SE T00900088
KJXI 141215Z AUTO 29008KT 270V330 2 1/2SM VCTS BR 09/09 A2973 RMK AO2 LTG DSNT N THRU SE T00910090
KJXI 141155Z AUTO 29004KT 1 1/2SM VCTS BR 09/09 A2972 RMK AO2 LTG DSNT N THRU SE 60003 70029 T00910091 10102 20083
KJXI 141135Z AUTO 30004KT 1 1/2SM BR 09/09 A2972 RMK AO2 LTG DSNT NE AND E T00900090
KJXI 141115Z AUTO 30003KT 5SM BR 09/09 A2973 RMK AO2 LTG DSNT N AND NE T00900088
KJXI 141055Z AUTO 30007KT 5SM BR 09/09 A2973 RMK AO2 LTG DSNT N THRU E T00870086
KJXI 141035Z AUTO 30009KT 5SM BR OVC002 09/09 A2971 RMK AO2 LTG DSNT N THRU SE T00860085
KJXI 141015Z AUTO 28005KT 5SM VCTS BR OVC002 09/09 A2973 RMK AO2 LTG DSNT N THRU SE T00860085
KJXI 140955Z AUTO 00000KT 5SM -RA OVC002 09/09 A2976 RMK AO2 LTG DSNT N THRU E P0003 T00850085
KJXI 140935Z AUTO 00000KT 1 3/4SM -RA 09/09 A2976 RMK AO2 LTG DSNT NE AND E P0001 T00860085
KJXI 140915Z AUTO 00000KT 1 3/4SM TS BR 09/09 A2977 RMK AO2 LTG DSNT ALQS T00850085
KJXI 140855Z AUTO 27005KT 1 1/2SM TS BR 09/08 A2975 RMK AO2 LTG DSNT N THRU S T00850084
KJXI 140655Z AUTO 32005KT 3/4SM BR OVC002 09/09 A2975 RMK AO2 T00870086
KJXI 140635Z AUTO 32006KT 1/2SM FG OVC002 09/09 A2974 RMK AO2 T00900090
KJXI 140615Z AUTO 31009G14KT 280V340 1SM BR 10/10 A2972 RMK AO2 T00960095
KJXI 140555Z AUTO 30006KT 7SM 10/10 A2973 RMK AO2 60001 T01010099 10152 20096 401820096
KJXI 140535Z AUTO 29004KT 7SM OVC003 10/10 A2973 RMK AO2 T01000095
KJXI 140515Z AUTO 29003KT 7SM 10/09 A2974 RMK AO2 T00970093
KJXI 140455Z AUTO 29003KT 7SM OVC005 10/09 A2974 RMK AO2 T00960092
KJXI 140435Z AUTO 27004KT 10SM SCT007 10/09 A2974 RMK AO2 T00970090
KJXI 140415Z AUTO 27004KT 10SM SCT110 10/09 A2975 RMK AO2 T00980088
KJXI 140355Z AUTO 26003KT 10SM SCT110 11/09 A2974 RMK AO2 T01050089
KJXI 140335Z AUTO 00000KT 10SM BKN110 11/09 A2973 RMK AO2 T01080090
KJXI 140315Z AUTO 00000KT 10SM SCT120 11/09 A2973 RMK AO2 T01120090
KJXI 140255Z AUTO 27003KT 10SM TS SCT120 11/09 A2973 RMK AO2 LTG DSNT N AND NE 60001 T01130091
KJXI 140235Z AUTO 00000KT 10SM CLR 12/10 A2973 RMK AO2 LTG DSNT E T01200095
KJXI 140215Z AUTO 25005KT 10SM TS CLR 13/10 A2973 RMK AO2 LTG DSNT N NE AND S T01260100
KJXI 140155Z AUTO 25006KT 10SM CLR 14/11 A2972 RMK AO2 T01350109
KJXI 140135Z AUTO 23003KT 10SM CLR 14/12 A2971 RMK AO2 LTG DSNT N THRU SE T01430120
KJXI 140115Z AUTO 22004KT 10SM SCT009 SCT017 SCT032 15/14 A2971 RMK AO2 T01500136
KJXI 140055Z AUTO 22003KT 7SM SCT006 BKN019 BKN032 15/15 A2970 RMK AO2 LTG DSNT W P0001 T01490146
KJXI 140035Z AUTO 00000KT 5SM -TSRA SCT006 BKN021 OVC035 15/15 A2970 RMK AO2 LTG DSNT N AND NE P0001 T01490146
KJXI 140015Z AUTO 00000KT 10SM TSDZ OVC004 15/15 A2970 RMK AO2 LTG DSNT ALQS T01510148
KJXI 132355Z AUTO 00000KT 7SM -RA 15/15 A2969 RMK AO2 LTG DSNT N SE AND NW 60005 T01480145 10182 20145
KJXI 132335Z AUTO 11003KT 10SM VCTS BKN003 OVC008 15/15 A2968 RMK AO2 T01500146
KJXI 132315Z AUTO 09003KT 10SM BKN003 OVC009 15/15 A2967 RMK AO2 LTG DSNT S AND NW T01490146
KJXI 132255Z AUTO 11003KT 10SM OVC005 15/15 A2967 RMK AO2 LTG DSNT NW T01500146
KJXI 132235Z AUTO 13004KT 7SM OVC005 15/15 A2967 RMK AO2 T01500146
KJXI 132215Z AUTO 11005KT 10SM OVC005 15/15 A2967 RMK AO2 LTG DSNT W T01500145
KJXI 132155Z AUTO 00000KT 7SM OVC007 15/14 A2967 RMK AO2 LTG DSNT NW THRU E P0005 T01470142
KJXI 132135Z AUTO 00000KT 7SM RA SCT007 SCT011 OVC019 15/14 A2967 RMK AO2 LTG DSNT W AND NW P0004 T01450140
KJXI 132115Z AUTO 12003KT 7SM RA SCT011 BKN019 OVC035 15/14 A2967 RMK AO2 LTG DSNT SW AND NW P0002 T01470140
KJXI 132055Z AUTO 13005KT 10SM BKN034 BKN042 OVC048 15/14 A2967 RMK AO2 LTG DSNT W AND NW T01500136
KJXI 132035Z AUTO 12009KT 10SM OVC050 17/13 A2966 RMK AO2 LTG DSNT NW T01710129
KJXI 132015Z AUTO 12006KT 10SM BKN050 BKN085 17/13 A2966 RMK AO2 LTG DSNT NW T01720134
KJXI 131955Z AUTO 13008G16KT 10SM SCT085 SCT100 18/13 A2966 RMK AO2 LTG DSNT NW T01780134
KJXI 131935Z AUTO 12008G18KT 10SM SCT016 SCT060 SCT085 18/13 A2967 RMK AO2 LTG DSNT NW T01750134
KJXI 131915Z AUTO 12009G16KT 10SM BKN016 BKN050 BKN075 17/14 A2967 RMK AO2 LTG DSNT NW T01740140
KJXI 131855Z AUTO 14010G17KT 10SM BKN016 BKN048 OVC055 17/14 A2970 RMK AO2 LTG DSNT N T01700137
KJXI 131835Z AUTO 13009G14KT 10SM BKN016 18/14 A2970 RMK AO2 T01750140
KJXI 131815Z AUTO 13009G18KT 10SM TS SCT016 17/14 A2970 RMK AO2 LTG DSNT ALQS T01710138
KJXI 131755Z AUTO 13011G17KT 10SM SCT014 BKN049 17/14 A2971 RMK AO2 60020 T01680139 10168 20142
KJXI 131735Z AUTO 13007G15KT 10SM SCT012 SCT049 BKN060 16/14 A2973 RMK AO2 T01550136
KJXI 131715Z AUTO 14009G14KT 10SM -RA BKN010 BKN014 OVC065 16/14 A2975 RMK AO2 T01550141
KJXI 131655Z AUTO 12008G14KT 10SM -RA OVC012 15/14 A2975 RMK AO2 LTG DSNT N AND NW P0012 T01480139
KJXI 131635Z AUTO 13008G14KT 10SM BKN010 BKN033 OVC046 15/14 A2977 RMK AO2 LTG DSNT NW P0012 T01480140
KJXI 131615Z AUTO 13008KT 3SM TSRA BKN010 OVC033 15/14 A2976 RMK AO2 LTG DSNT ALQS P0012 T01470140
KJXI 131555Z AUTO 13008KT 10SM OVC010 15/14 A2977 RMK AO2 LTG DSNT NW T01500140
KJXI 131535Z AUTO 13008KT 10SM OVC010 15/14 A2978 RMK AO2 T01480137
KJXI 131515Z AUTO 13004KT 10SM -DZ OVC010 15/14 A2978 RMK AO2 LTG DSNT NW T01480137
KJXI 131455Z AUTO 14010G14KT 10SM OVC010 15/14 A2978 RMK AO2 P0002 60008 T01490138
KJXI 131435Z AUTO 14009G16KT 10SM -RA OVC010 15/14 A2978 RMK AO2 P0002 T01500140
KJXI 131415Z AUTO 14006KT 10SM -RA OVC010 15/14 A2978 RMK AO2 P0001 T01470140
KJXI 131355Z AUTO 13006KT 10SM -RA OVC010 15/14 A2977 RMK AO2 LTG DSNT N AND NE T01480139
KJXI 131335Z AUTO 14006KT 10SM OVC010 15/14 A2976 RMK AO2 LTG DSNT W THRU NE T01480138
KJXI 131315Z AUTO 15006KT 10SM OVC010 15/14 A2976 RMK AO2 LTG DSNT N AND NE T01460138
KJXI 131255Z AUTO 14006KT 10SM OVC012 15/14 A2976 RMK AO2 LTG DSNT N AND SE P0006 T01450137
KJXI 131235Z AUTO 14008KT 10SM -RA OVC010 15/14 A2976 RMK AO2 LTG DSNT N THRU SE P0006 T01450136
KJXI 131215Z AUTO 14008G18KT 7SM RA OVC008 14/14 A2976 RMK AO2 LTG DSNT N THRU SE P0003 T01430135
KJXI 131155Z AUTO 13008KT 10SM VCTS OVC008 14/14 A2976 RMK AO2 LTG DSNT N THRU SE 60019 70019 T01410135 10161 20140
KJXI 131135Z AUTO 13006KT 10SM OVC008 14/13 A2975 RMK AO2 LTG DSNT N THRU S T01410133
KJXI 131115Z AUTO 12006KT 10SM BKN010 BKN015 OVC025 14/13 A2975 RMK AO2 LTG DSNT N SE AND S T01410133
KJXI 131055Z AUTO 11007KT 10SM VCTS BKN014 BKN020 OVC027 14/14 A2975 RMK AO2 LTG DSNT ALQS P0001 T01400135
KJXI 131035Z AUTO 11007KT 10SM OVC016 14/14 A2974 RMK AO2 LTG DSNT S AND NW P0001 T01430137
KJXI 131015Z AUTO 12005KT 10SM TS OVC016 15/14 A2975 RMK AO2 LTG DSNT ALQS P0001 T01450138
KJXI 130955Z AUTO 11003KT 10SM -VCTSRA OVC014 15/14 A2978 RMK AO2 LTG DSNT NW THRU E P0018 T01450138
KJXI 130935Z AUTO 00000KT 4SM TSRA BKN014 OVC020 15/14 A2980 RMK AO2 LTG DSNT ALQS P0015 T01480137
KJXI 130915Z AUTO 16003KT 10SM TS OVC019 16/13 A2980 RMK AO2 LTG DSNT ALQS T01550132
KJXI 130855Z AUTO 13004KT 10SM VCTS BKN019 OVC028 16/13 A2981 RMK AO2 LTG DSNT ALQS T01570133
KJXI 130835Z AUTO 15004KT 10SM BKN019 OVC025 16/13 A2982 RMK AO2 LTG DSNT SW T01580133
KJXI 130815Z AUTO 13004KT 10SM BKN019 OVC025 16/13 A2982 RMK AO2 LTG DSNT W T01600133
KJXI 130755Z AUTO 15005KT 10SM BKN019 OVC025 16/13 A2983 RMK AO2 T01600133
KJXI 130735Z AUTO 16007KT 10SM BKN019 OVC025 16/13 A2982 RMK AO2 T01600133
KJXI 130715Z AUTO 15005KT 10SM BKN019 OVC025 16/13 A2983 RMK AO2 T01570132
KJXI 130655Z AUTO 17004KT 10SM OVC022 16/13 A2984 RMK AO2 T01550131